Etusivu
METAR-TAF:

METAR-TAF

Lentoasemat :

Balıkesir, Turkki

Leveyspiiri: 39-37N, Pituuspiiri: 027-55E, korkeus merenpinnasta: 101 m

Tämänhetkinen sää

Tämä raportti tehtiin 41 minuuttia sitten, kello 01.50 UTC
tyyntä
Lämpötila 12°C
Kosteus 88%
Ilmanpaine 1013 hPa
Näkyvyys 10 km tai enemmän
ei pilviä alle 1500 m:ssä eikä cumulonimbus-pilviä

METAR: LTBF 060150Z 00000KT CAVOK 12/10 Q1013 NOSIG

Aika: 05:31 (02:31 UTC)

Sääennuste

Tämä raportti tehtiin 51 minuuttia sitten, kello 01.40 UTC
Ennuste voimassa 06. päivästä klo 03 UTC - 06. päivään klo 12 UTC
Tuuli 2 kn eri suunnista
Näkyvyys 10 km tai enemmän
ei pilviä alle 1500 m:ssä eikä cumulonimbus-pilviä

TAF: LTBF 060140Z 0603/0612 VRB02KT CAVOK

Säähavainnot ja -ennusteet yli 4000 lentoasemalta (METAR- ja TAF-raportit).

Käytössä olevat sääasemat on merkitty karttaan keltaisilla ja punaisilla pisteillä.

Aseta hiiri pisteen päälle nähdäksesi sääaseman nimen.

Klikkaa sitten nähdäksesi säähavainnot ja -ennusteet.

Kartan vaihtaminen: klikkaa mustalla rastilla varustettuja vihreitä pisteitä, niin voit zoomata sisään; viivalla varustettua vihreää pistettä, niin voit zoomata ulos tai vihreitä nuolia, niin pääset viereisille kartoille.


METAR-TAF: